createdAt,value
2023-03-29T00:03:36.125Z,82.93
2023-03-29T00:13:40.229Z,86.17
2023-03-29T00:23:45.481Z,82.67
2023-03-29T00:33:49.247Z,82.73
2023-03-29T00:43:57.417Z,85.90
2023-03-29T00:54:05.191Z,84.03
2023-03-29T01:04:19.658Z,82.77
2023-03-29T01:14:30.534Z,84.63
2023-03-29T01:24:50.608Z,85.43
2023-03-29T01:35:01.202Z,86.43
2023-03-29T01:45:15.080Z,84.93
2023-03-29T01:55:25.537Z,86.00
2023-03-29T02:05:31.849Z,87.57
2023-03-29T02:15:37.448Z,88.17
2023-03-29T02:25:41.628Z,86.00
2023-03-29T02:35:54.632Z,87.33
2023-03-29T02:45:59.428Z,90.07
2023-03-29T02:56:07.591Z,89.20
2023-03-29T03:06:12.247Z,88.97
2023-03-29T03:16:17.453Z,87.10
2023-03-29T03:26:21.178Z,89.70
2023-03-29T03:36:29.219Z,86.93
2023-03-29T03:46:33.966Z,85.33
2023-03-29T03:56:39.848Z,90.00
2023-03-29T04:06:44.249Z,94.73
2023-03-29T04:17:15.814Z,94.60
2023-03-29T04:27:40.153Z,93.97
2023-03-29T04:38:04.534Z,89.23
2023-03-29T04:48:08.890Z,90.60
2023-03-29T04:58:18.549Z,90.67
2023-03-29T05:08:24.477Z,90.60
2023-03-29T05:18:56.175Z,87.90
2023-03-29T05:29:01.608Z,88.53
2023-03-29T05:39:07.537Z,90.10
2023-03-29T05:49:12.579Z,88.07
2023-03-29T05:59:30.425Z,89.03
2023-03-29T06:09:34.313Z,89.93
2023-03-29T06:19:42.595Z,93.37
2023-03-29T06:29:46.513Z,95.07
2023-03-29T06:39:53.431Z,94.40
2023-03-29T06:50:02.657Z,102.70
2023-03-29T07:00:18.389Z,100.67
2023-03-29T07:10:47.698Z,102.73
2023-03-29T07:21:12.966Z,101.07
2023-03-29T07:31:17.737Z,97.20
2023-03-29T07:41:28.453Z,101.07
2023-03-29T07:51:38.235Z,103.63
2023-03-29T08:01:49.033Z,107.23
2023-03-29T08:12:06.747Z,106.47
2023-03-29T08:22:15.029Z,106.17
2023-03-29T08:32:39.550Z,106.33
2023-03-29T08:43:12.913Z,108.57
2023-03-29T08:53:41.843Z,105.50
2023-03-29T09:04:06.099Z,112.33
2023-03-29T09:14:53.935Z,119.50
2023-03-29T09:25:13.065Z,114.93
2023-03-29T09:35:27.258Z,113.53
2023-03-29T09:45:33.529Z,126.17
2023-03-29T09:55:40.807Z,130.10
2023-03-29T10:06:09.765Z,127.35
2023-03-29T10:16:22.829Z,135.02
2023-03-29T10:26:33.184Z,124.70
2023-03-29T10:36:37.486Z,126.18
2023-03-29T10:46:45.379Z,126.13
2023-03-29T10:56:53.824Z,134.30
2023-03-29T11:07:34.665Z,138.35
2023-03-29T11:17:54.154Z,137.02
2023-03-29T11:28:07.745Z,140.25
2023-03-29T11:38:23.939Z,135.25
2023-03-29T11:48:35.135Z,140.25
2023-03-29T11:58:43.764Z,138.50
2023-03-29T12:08:56.847Z,135.80
2023-03-29T12:19:06.373Z,143.63
2023-03-29T12:29:29.721Z,140.93
2023-03-29T12:39:34.100Z,134.57
2023-03-29T12:50:00.964Z,138.07
2023-03-29T13:00:20.525Z,137.93
2023-03-29T13:10:42.246Z,134.65
2023-03-29T13:20:52.553Z,131.70
2023-03-29T13:31:05.626Z,132.10
2023-03-29T13:41:29.677Z,127.30
2023-03-29T13:51:45.221Z,133.77
2023-03-29T14:01:54.701Z,126.47
2023-03-29T14:12:02.596Z,120.30
2023-03-29T14:22:13.990Z,117.30
2023-03-29T14:32:21.612Z,108.10
2023-03-29T14:42:29.125Z,107.97
2023-03-29T14:52:34.976Z,98.40
2023-03-29T15:02:39.734Z,103.73
2023-03-29T15:12:46.378Z,99.40
2023-03-29T15:23:03.736Z,98.97
2023-03-29T15:33:34.401Z,102.40
2023-03-29T15:43:38.328Z,102.47
2023-03-29T15:53:44.010Z,102.43
2023-03-29T16:03:48.262Z,101.87
2023-03-29T16:13:53.664Z,104.73
2023-03-29T16:23:57.365Z,95.67
2023-03-29T16:34:03.642Z,97.40
2023-03-29T16:44:07.909Z,93.63
2023-03-29T16:54:12.991Z,100.17
2023-03-29T17:04:17.531Z,96.23
2023-03-29T17:14:22.764Z,91.90
2023-03-29T17:24:26.637Z,91.23
2023-03-29T17:34:33.027Z,88.10
2023-03-29T17:44:36.859Z,87.53
2023-03-29T17:54:41.795Z,93.63
2023-03-29T18:04:45.542Z,90.03
2023-03-29T18:14:51.076Z,93.37
2023-03-29T18:24:55.053Z,93.10
2023-03-29T18:35:02.357Z,92.87
2023-03-29T18:45:07.250Z,95.30
2023-03-29T18:55:12.610Z,91.07
2023-03-29T19:05:16.377Z,91.53
2023-03-29T19:15:22.012Z,91.47
2023-03-29T19:25:25.919Z,92.37
2023-03-29T19:35:31.095Z,91.80
2023-03-29T19:45:34.726Z,93.67
2023-03-29T19:55:42.550Z,88.63
2023-03-29T20:05:47.452Z,91.63
2023-03-29T20:15:52.764Z,89.07
2023-03-29T20:25:57.229Z,91.83
2023-03-29T20:36:02.322Z,87.37
2023-03-29T20:46:06.108Z,86.47
2023-03-29T20:56:11.023Z,85.80
2023-03-29T21:06:15.166Z,86.03
2023-03-29T21:16:20.636Z,86.07
2023-03-29T21:26:24.408Z,87.00
2023-03-29T21:36:29.713Z,83.07
2023-03-29T21:46:33.382Z,84.73
2023-03-29T21:56:38.833Z,86.17
2023-03-29T22:06:42.663Z,84.47
2023-03-29T22:16:47.942Z,82.17
2023-03-29T22:26:51.588Z,89.20
2023-03-29T22:36:56.689Z,87.03
2023-03-29T22:47:00.645Z,83.77
2023-03-29T22:57:05.753Z,86.37
2023-03-29T23:07:09.527Z,83.53
2023-03-29T23:17:19.373Z,84.80
2023-03-29T23:27:23.061Z,86.63
2023-03-29T23:37:28.340Z,83.03
2023-03-29T23:47:32.008Z,89.87
2023-03-29T23:57:37.336Z,86.03
